createdAt,value
2023-03-02T00:01:03.839Z,96915.59
2023-03-02T00:05:59.974Z,96918.31
2023-03-02T00:10:54.735Z,96923.47
2023-03-02T00:15:48.116Z,96904.41
2023-03-02T00:20:42.880Z,96914.03
2023-03-02T00:25:37.756Z,96917.25
2023-03-02T00:30:31.033Z,96896.75
2023-03-02T00:35:24.354Z,96889.06
2023-03-02T00:40:19.633Z,96888.81
2023-03-02T00:45:13.290Z,96892.69
2023-03-02T00:50:08.819Z,96889.84
2023-03-02T00:55:02.233Z,96876.81
2023-03-02T00:59:57.045Z,96865.31
2023-03-02T01:04:50.702Z,96868.28
2023-03-02T01:09:46.499Z,96866.69
2023-03-02T01:14:43.251Z,96868.66
2023-03-02T01:19:38.574Z,96866.16
2023-03-02T01:24:32.272Z,96862.09
2023-03-02T01:29:25.580Z,96852.56
2023-03-02T01:34:18.902Z,96856.72
2023-03-02T01:39:15.920Z,96846.25
2023-03-02T01:44:43.017Z,96845.97
2023-03-02T01:49:39.140Z,96824.47
2023-03-02T01:54:34.105Z,96826.38
2023-03-02T01:59:31.801Z,96823.25
2023-03-02T02:04:28.727Z,96824.53
2023-03-02T02:09:25.157Z,96828.22
2023-03-02T02:14:20.266Z,96821.28
2023-03-02T02:19:33.655Z,96818.47
2023-03-02T02:24:38.012Z,96809.00
2023-03-02T02:29:38.596Z,96811.75
2023-03-02T02:34:40.060Z,96815.50
2023-03-02T02:39:42.776Z,96810.94
2023-03-02T02:44:37.609Z,96810.09
2023-03-02T02:49:36.505Z,96824.81
2023-03-02T02:54:32.547Z,96808.34
2023-03-02T02:59:30.063Z,96822.88
2023-03-02T03:04:29.270Z,96824.53
2023-03-02T03:09:23.347Z,96829.44
2023-03-02T03:14:20.745Z,96827.81
2023-03-02T03:19:20.821Z,96834.06
2023-03-02T03:24:15.472Z,96836.81
2023-03-02T03:29:09.627Z,96827.28
2023-03-02T03:34:03.533Z,96832.88
2023-03-02T03:38:58.091Z,96822.66
2023-03-02T03:43:54.162Z,96819.53
2023-03-02T03:48:47.480Z,96819.91
2023-03-02T03:53:40.797Z,96819.63
2023-03-02T03:58:34.561Z,96825.25
2023-03-02T04:03:29.485Z,96825.25
2023-03-02T04:08:23.242Z,96819.34
2023-03-02T04:13:16.712Z,96815.88
2023-03-02T04:18:10.079Z,96821.72
2023-03-02T04:23:04.877Z,96826.25
2023-03-02T04:27:58.821Z,96818.69
2023-03-02T04:32:52.296Z,96829.72
2023-03-02T04:37:47.073Z,96820.34
2023-03-02T04:42:41.802Z,96815.63
2023-03-02T04:47:35.108Z,96808.63
2023-03-02T04:52:28.429Z,96813.97
2023-03-02T04:57:22.642Z,96827.97
2023-03-02T05:02:17.557Z,96827.41
2023-03-02T05:07:11.241Z,96838.47
2023-03-02T05:12:05.070Z,96840.97
2023-03-02T05:16:59.544Z,96838.47
2023-03-02T05:21:55.028Z,96844.09
2023-03-02T05:26:48.282Z,96844.91
2023-03-02T05:31:44.979Z,96845.00
2023-03-02T05:36:38.618Z,96846.06
2023-03-02T05:41:34.168Z,96850.38
2023-03-02T05:46:28.198Z,96857.38
2023-03-02T05:51:21.760Z,96862.75
2023-03-02T05:56:15.035Z,96860.25
2023-03-02T06:01:15.284Z,96860.56
2023-03-02T06:06:09.055Z,96876.41
2023-03-02T06:11:02.465Z,96883.47
2023-03-02T06:15:55.836Z,96894.22
2023-03-02T06:20:51.847Z,96889.38
2023-03-02T06:25:49.002Z,96907.50
2023-03-02T06:30:42.912Z,96904.00
2023-03-02T06:35:36.625Z,96902.00
2023-03-02T06:40:31.747Z,96899.31
2023-03-02T06:45:25.436Z,96910.38
2023-03-02T06:50:19.011Z,96913.72
2023-03-02T06:55:12.609Z,96917.16
2023-03-02T07:00:17.027Z,96916.75
2023-03-02T07:05:10.761Z,96918.63
2023-03-02T07:10:11.093Z,96928.84
2023-03-02T07:15:11.027Z,96937.13
2023-03-02T07:20:05.345Z,96926.63
2023-03-02T07:24:58.649Z,96944.44
2023-03-02T07:29:52.091Z,96952.72
2023-03-02T07:34:47.047Z,96958.13
2023-03-02T07:39:40.434Z,96965.03
2023-03-02T07:44:33.751Z,96965.34
2023-03-02T07:49:27.295Z,96966.81
2023-03-02T07:54:22.202Z,96972.00
2023-03-02T07:59:15.867Z,96984.09
2023-03-02T08:04:09.198Z,96991.63
2023-03-02T08:09:05.028Z,96995.97
2023-03-02T08:14:02.835Z,96998.53
2023-03-02T08:18:58.624Z,96991.16
2023-03-02T08:23:54.047Z,97000.91
2023-03-02T08:28:47.812Z,97010.63
2023-03-02T08:33:42.651Z,97011.47
2023-03-02T08:38:37.163Z,97005.94
2023-03-02T08:43:31.251Z,97018.41
2023-03-02T08:48:25.555Z,97016.03
2023-03-02T08:53:20.183Z,97010.09
2023-03-02T08:58:13.520Z,97005.47
2023-03-02T09:03:06.886Z,97010.50
2023-03-02T09:08:00.180Z,97005.97
2023-03-02T09:12:55.004Z,97009.03
2023-03-02T09:17:48.449Z,97028.69
2023-03-02T09:22:48.050Z,97029.53
2023-03-02T09:27:41.652Z,97029.22
2023-03-02T09:32:37.027Z,97033.91
2023-03-02T09:37:31.037Z,97042.59
2023-03-02T09:42:55.663Z,97048.06
2023-03-02T09:48:03.783Z,97038.53
2023-03-02T09:53:25.796Z,97040.84
2023-03-02T09:58:22.672Z,97037.56
2023-03-02T10:03:21.777Z,97038.69
2023-03-02T10:08:21.069Z,97044.53
2023-03-02T10:13:36.281Z,97049.03
2023-03-02T10:18:39.494Z,97048.59
2023-03-02T10:23:44.089Z,97050.56
2023-03-02T10:28:45.556Z,97062.47
2023-03-02T10:33:43.009Z,97060.16
2023-03-02T10:38:38.086Z,97073.84
2023-03-02T10:43:38.364Z,97063.31
2023-03-02T10:48:32.212Z,97054.78
2023-03-02T10:53:27.140Z,97052.88
2023-03-02T10:58:30.418Z,97064.56
2023-03-02T11:03:25.457Z,97063.75
2023-03-02T11:08:21.550Z,97074.31
2023-03-02T11:13:24.203Z,97078.38
2023-03-02T11:18:29.315Z,97074.44
2023-03-02T11:23:41.695Z,97071.31
2023-03-02T11:28:54.834Z,97073.19
2023-03-02T11:34:17.241Z,97072.53
2023-03-02T11:39:21.698Z,97069.91
2023-03-02T11:44:24.101Z,97065.50
2023-03-02T11:49:25.080Z,97072.91
2023-03-02T11:54:36.784Z,97072.31
2023-03-02T11:59:35.925Z,97068.34
2023-03-02T12:04:36.617Z,97078.91
2023-03-02T12:09:38.499Z,97072.19
2023-03-02T12:14:41.054Z,97066.88
2023-03-02T12:19:45.165Z,97068.16
2023-03-02T12:24:42.888Z,97068.91
2023-03-02T12:29:44.796Z,97066.94
2023-03-02T12:34:42.844Z,97058.59
2023-03-02T12:40:26.183Z,97052.34
2023-03-02T12:45:43.434Z,97051.88
2023-03-02T12:50:40.957Z,97063.16
2023-03-02T12:55:36.886Z,97062.00
2023-03-02T13:00:36.073Z,97062.41
2023-03-02T13:05:33.184Z,97064.09
2023-03-02T13:10:37.399Z,97066.16
2023-03-02T13:15:32.373Z,97061.38
2023-03-02T13:20:30.159Z,97060.69
2023-03-02T13:25:28.622Z,97061.50
2023-03-02T13:30:28.120Z,97063.91
2023-03-02T13:35:29.299Z,97070.22
2023-03-02T13:40:42.148Z,97069.16
2023-03-02T13:45:35.517Z,97071.34
2023-03-02T13:50:34.106Z,97078.50
2023-03-02T13:55:27.819Z,97085.38
2023-03-02T14:00:28.003Z,97078.97
2023-03-02T14:05:24.364Z,97081.72
2023-03-02T14:10:21.450Z,97082.75
2023-03-02T14:15:17.889Z,97087.72
2023-03-02T14:20:15.952Z,97092.91
2023-03-02T14:25:15.447Z,97081.56
2023-03-02T14:30:22.541Z,97100.38
2023-03-02T14:35:17.637Z,97091.19
2023-03-02T14:40:18.942Z,97088.34
2023-03-02T14:45:12.875Z,97092.19
2023-03-02T14:50:14.809Z,97100.13
2023-03-02T14:55:18.528Z,97097.88
2023-03-02T15:00:16.589Z,97106.91
2023-03-02T15:05:11.931Z,97095.06
2023-03-02T15:10:07.362Z,97091.44
2023-03-02T15:15:00.816Z,97096.53
2023-03-02T15:19:54.356Z,97096.47
2023-03-02T15:24:49.149Z,97103.47
2023-03-02T15:29:46.435Z,97092.13
2023-03-02T15:34:40.186Z,97108.66
2023-03-02T15:39:34.445Z,97109.06
2023-03-02T15:44:29.758Z,97093.03
2023-03-02T15:49:24.930Z,97090.00
2023-03-02T15:54:18.547Z,97102.13
2023-03-02T15:59:15.206Z,97096.97
2023-03-02T16:04:10.096Z,97098.91
2023-03-02T16:09:04.539Z,97102.84
2023-03-02T16:13:58.084Z,97104.53
2023-03-02T16:18:52.604Z,97117.88
2023-03-02T16:23:48.179Z,97115.97
2023-03-02T16:28:42.740Z,97119.38
2023-03-02T16:33:36.488Z,97129.97
2023-03-02T16:38:29.834Z,97127.50
2023-03-02T16:43:25.146Z,97134.22
2023-03-02T16:48:18.722Z,97136.69
2023-03-02T16:53:13.483Z,97137.88
2023-03-02T16:58:07.095Z,97143.97
2023-03-02T17:03:02.351Z,97144.47
2023-03-02T17:07:58.837Z,97151.47
2023-03-02T17:12:52.180Z,97157.56
2023-03-02T17:17:45.650Z,97160.91
2023-03-02T17:22:40.592Z,97165.97
2023-03-02T17:27:34.495Z,97158.97
2023-03-02T17:32:31.386Z,97159.03
2023-03-02T17:37:25.825Z,97165.06
2023-03-02T17:42:21.411Z,97172.91
2023-03-02T17:47:16.894Z,97187.13
2023-03-02T17:52:10.436Z,97190.13
2023-03-02T17:57:03.868Z,97193.03
2023-03-02T18:01:58.727Z,97191.28
2023-03-02T18:06:54.033Z,97197.91
2023-03-02T18:11:47.943Z,97199.84
2023-03-02T18:16:41.673Z,97210.78
2023-03-02T18:21:37.129Z,97214.88
2023-03-02T18:26:30.776Z,97209.50
2023-03-02T18:31:24.661Z,97208.47
2023-03-02T18:36:19.080Z,97207.75
2023-03-02T18:41:18.708Z,97206.72
2023-03-02T18:46:21.836Z,97210.22
2023-03-02T18:51:15.907Z,97214.34
2023-03-02T18:56:19.871Z,97212.94
2023-03-02T19:01:21.131Z,97213.97
2023-03-02T19:06:16.539Z,97210.59
2023-03-02T19:11:10.000Z,97213.31
2023-03-02T19:16:05.981Z,97210.34
2023-03-02T19:21:05.429Z,97216.44
2023-03-02T19:25:59.056Z,97214.69
2023-03-02T19:30:53.379Z,97216.56
2023-03-02T19:35:48.662Z,97211.38
2023-03-02T19:40:43.456Z,97211.72
2023-03-02T19:45:38.374Z,97220.78
2023-03-02T19:50:31.983Z,97220.72
2023-03-02T19:55:27.753Z,97227.72
2023-03-02T20:00:22.442Z,97231.16
2023-03-02T20:05:16.759Z,97228.75
2023-03-02T20:10:12.438Z,97239.09
2023-03-02T20:15:10.255Z,97243.50
2023-03-02T20:20:05.707Z,97235.06
2023-03-02T20:24:59.182Z,97233.91
2023-03-02T20:29:52.750Z,97240.50
2023-03-02T20:34:47.912Z,97244.34
2023-03-02T20:39:52.328Z,97239.84
2023-03-02T20:44:50.596Z,97241.56
2023-03-02T20:50:11.331Z,97228.44
2023-03-02T20:55:17.709Z,97239.66
2023-03-02T21:00:33.786Z,97239.09
2023-03-02T21:05:55.681Z,97246.13
2023-03-02T21:11:56.234Z,97254.31
2023-03-02T21:17:38.763Z,97240.94
2023-03-02T21:23:11.264Z,97234.81
2023-03-02T21:28:20.425Z,97234.34
2023-03-02T21:33:27.455Z,97233.25
2023-03-02T21:38:49.460Z,97233.00
2023-03-02T21:44:07.881Z,97236.25
2023-03-02T21:49:35.275Z,97226.22
2023-03-02T21:55:22.634Z,97225.56
2023-03-02T22:01:05.332Z,97221.69
2023-03-02T22:06:26.554Z,97220.69
2023-03-02T22:11:48.953Z,97215.69
2023-03-02T22:17:37.457Z,97218.28
2023-03-02T22:23:15.781Z,97219.91
2023-03-02T22:28:46.226Z,97208.34
2023-03-02T22:40:01.334Z,97203.66
2023-03-02T22:45:18.095Z,97203.81
2023-03-02T22:50:55.356Z,97207.88
2023-03-02T22:56:35.763Z,97203.88
2023-03-02T23:01:45.202Z,97219.50
2023-03-02T23:06:45.110Z,97209.25
2023-03-02T23:11:41.900Z,97207.06
2023-03-02T23:16:37.867Z,97207.72
2023-03-02T23:21:40.105Z,97211.22
2023-03-02T23:26:33.409Z,97202.31
2023-03-02T23:31:27.161Z,97213.63
2023-03-02T23:36:22.895Z,97204.84
2023-03-02T23:41:16.698Z,97208.75
2023-03-02T23:46:13.901Z,97202.72
2023-03-02T23:51:07.768Z,97202.56
2023-03-02T23:56:02.559Z,97202.53
